Pagrindinis puslapis
METAR-TAF:

METAR-TAF

Oro uostai :

Port Sudan, Sudanas

platuma: 19-26N, ilguma: 037-14E, Aukštis: 138 m

METAR: trūkstamas

Laikas: 13:30 (11:30 UTC)

Prognozė

Ataskaita buvo paskelbta 30 valandos ir 30 minutes, ne 05:00 UTC
Prognozė galioja nuo 05 metu 06 UTC su 06 metu 12 UTC
Vėjas 10 kt iš Šiaurės
Matomumas 10 km arba daugiau
Mažai debesys ne aukštis 3000 ft
Išsisklaidę debesys ne aukštis 13000 ft
Tapsmas
nuo 05 metu 09 UTC su 05 metu 11 UTC
Vėjas 11 kt iš Šiaurės Rytų
Laikinai
nuo 05 metu 01 UTC su 05 metu 09 UTC
Matomumas: 4000 m
Išsisklaidę debesys ne aukštis 3000 ft
Su prošvaistėmis ne aukštis 13000 ft
Tapsmas
nuo 05 metu 19 UTC su 05 metu 21 UTC
Vėjas 10 kt iš Šiaurės/Šiaurės Vakarų

TAF: HSPN 050500Z 0506/0612 35010KT 9999 FEW030 SCT130 BECMG 0509/0511 04011KT TEMPO 0501/0509 4000 BLSA/SHRA SCT030 BKN130 BECMG 0519/0521 34010KT

Orai ataskaitas ir orų prognozės (METAR, TAF).

turimą stotys yra geltonos ir raudonos taškus žemėlapyje.

Perkelti pele per norėdami pamatyti stoties vardą.

Tada spustelėkite, norėdami matyti oro stebėjimo ir prognozės.

Norėdami pakeisti žemėlapį: spustelėkite ant žalios mygtukų su juodo kryžiaus žemyn,; žalią mygtuką su brūkšneliu, jei norite nutolinti; arba žalių rodyklių gretimoms žemėlapius.


METAR-TAF: